createdAt,value
2018-09-05T00:00:17.613Z,10.73
2018-09-05T00:02:46.851Z,9.30
2018-09-05T00:05:16.062Z,8.43
2018-09-05T00:07:45.283Z,9.47
2018-09-05T00:10:14.920Z,8.90
2018-09-05T00:12:44.120Z,11.63
2018-09-05T00:15:13.339Z,10.63
2018-09-05T00:17:42.574Z,11.97
2018-09-05T00:20:11.787Z,12.60
2018-09-05T00:22:41.015Z,11.00
2018-09-05T00:25:10.248Z,10.97
2018-09-05T00:27:39.460Z,10.20
2018-09-05T00:30:08.672Z,9.10
2018-09-05T00:32:37.939Z,8.57
2018-09-05T00:35:07.462Z,9.63
2018-09-05T00:37:36.690Z,9.00
2018-09-05T00:40:05.990Z,8.90
2018-09-05T00:42:36.486Z,9.27
2018-09-05T00:45:05.727Z,9.13
2018-09-05T00:47:34.938Z,8.30
2018-09-05T00:50:04.154Z,8.60
2018-09-05T00:52:33.374Z,8.27
2018-09-05T00:55:02.602Z,8.20
2018-09-05T00:57:31.810Z,9.17
2018-09-05T01:00:01.011Z,7.97
2018-09-05T01:02:30.237Z,7.90
2018-09-05T01:04:59.442Z,8.80
2018-09-05T01:07:29.362Z,9.00
2018-09-05T01:09:58.587Z,8.40
2018-09-05T01:12:27.776Z,7.70
2018-09-05T01:14:56.990Z,7.97
2018-09-05T01:17:26.204Z,7.67
2018-09-05T01:19:55.473Z,7.47
2018-09-05T01:22:24.682Z,8.40
2018-09-05T01:24:53.912Z,9.10
2018-09-05T01:27:23.127Z,7.20
2018-09-05T01:29:52.337Z,8.93
2018-09-05T01:32:21.559Z,9.13
2018-09-05T01:34:50.792Z,9.00
2018-09-05T01:37:19.998Z,9.40
2018-09-05T01:39:49.210Z,8.78
2018-09-05T01:42:18.438Z,9.13
2018-09-05T01:44:47.638Z,9.90
2018-09-05T01:47:16.847Z,9.20
2018-09-05T01:49:46.060Z,8.43
2018-09-05T01:52:15.258Z,8.50
2018-09-05T01:54:45.327Z,8.63
2018-09-05T01:57:14.780Z,7.43
2018-09-05T01:59:43.997Z,7.37
2018-09-05T02:02:13.979Z,8.07
2018-09-05T02:04:43.192Z,7.17
2018-09-05T02:07:13.339Z,6.78
2018-09-05T02:09:42.578Z,6.60
2018-09-05T02:12:11.786Z,7.67
2018-09-05T02:14:41.001Z,7.77
2018-09-05T02:17:10.211Z,8.67
2018-09-05T02:19:39.433Z,10.40
2018-09-05T02:22:08.656Z,12.73
2018-09-05T02:24:37.903Z,8.68
2018-09-05T02:27:07.617Z,9.37
2018-09-05T02:29:36.851Z,10.20
2018-09-05T02:32:06.104Z,9.47
2018-09-05T02:34:35.315Z,8.87
2018-09-05T02:37:04.539Z,8.67
2018-09-05T02:39:33.760Z,8.77
2018-09-05T02:42:02.994Z,8.53
2018-09-05T02:44:32.202Z,8.15
2018-09-05T02:47:01.450Z,7.60
2018-09-05T02:49:30.671Z,7.97
2018-09-05T02:51:59.877Z,7.80
2018-09-05T02:54:29.113Z,7.70
2018-09-05T02:56:58.295Z,7.30
2018-09-05T02:59:27.499Z,6.97
2018-09-05T03:01:56.714Z,7.00
2018-09-05T03:04:25.914Z,6.90
2018-09-05T03:06:55.125Z,7.00
2018-09-05T03:09:24.374Z,6.13
2018-09-05T03:11:53.518Z,5.43
2018-09-05T03:14:22.746Z,5.63
2018-09-05T03:16:51.950Z,5.93
2018-09-05T03:19:21.165Z,6.20
2018-09-05T03:21:50.354Z,5.17
2018-09-05T03:24:19.558Z,5.50
2018-09-05T03:26:48.783Z,5.70
2018-09-05T03:29:18.007Z,7.70
2018-09-05T03:31:47.186Z,7.80
2018-09-05T03:34:16.414Z,7.03
2018-09-05T03:36:45.621Z,6.10
2018-09-05T03:39:14.839Z,6.90
2018-09-05T03:41:44.054Z,8.30
2018-09-05T03:44:13.275Z,8.40
2018-09-05T03:46:42.468Z,6.40
2018-09-05T03:49:11.748Z,6.53
2018-09-05T03:51:40.960Z,6.70
2018-09-05T03:59:08.202Z,6.43
2018-09-05T04:01:37.436Z,6.03
2018-09-05T04:04:06.673Z,5.50
2018-09-05T04:06:35.890Z,5.60
2018-09-05T04:09:07.595Z,5.97
2018-09-05T04:11:37.271Z,5.50
2018-09-05T04:14:06.491Z,5.90
2018-09-05T04:16:36.639Z,6.03
2018-09-05T04:19:05.863Z,6.07
2018-09-05T04:21:35.076Z,6.22
2018-09-05T04:24:04.271Z,5.80
2018-09-05T04:26:33.491Z,6.17
2018-09-05T04:29:02.687Z,5.30
2018-09-05T04:31:32.179Z,6.00
2018-09-05T04:34:01.381Z,5.60
2018-09-05T04:36:30.591Z,6.00
2018-09-05T04:38:59.823Z,6.10
2018-09-05T04:41:29.040Z,6.83
2018-09-05T04:43:58.252Z,6.25
2018-09-05T04:46:27.584Z,7.37
2018-09-05T04:48:56.789Z,5.80
2018-09-05T04:51:26.003Z,6.70
2018-09-05T04:53:55.227Z,6.43
2018-09-05T04:56:24.448Z,5.17
2018-09-05T04:58:54.355Z,5.23
2018-09-05T05:01:23.606Z,5.40
2018-09-05T05:03:52.892Z,5.47
2018-09-05T05:06:22.060Z,5.23
2018-09-05T05:09:09.869Z,4.90
2018-09-05T05:11:39.502Z,4.00
2018-09-05T05:14:08.752Z,4.30
2018-09-05T05:16:37.968Z,4.40
2018-09-05T05:19:07.330Z,4.20
2018-09-05T05:21:36.542Z,4.27
2018-09-05T05:24:05.771Z,4.70
2018-09-05T05:26:34.987Z,4.50
2018-09-05T05:29:04.205Z,4.90
2018-09-05T05:31:33.417Z,4.33
2018-09-05T05:34:02.612Z,4.17
2018-09-05T05:36:31.846Z,3.93
2018-09-05T05:39:01.081Z,4.00
2018-09-05T05:41:30.292Z,4.00
2018-09-05T05:43:59.608Z,3.93
2018-09-05T05:46:28.823Z,3.67
2018-09-05T05:48:58.051Z,3.30
2018-09-05T05:51:27.258Z,3.07
2018-09-05T05:53:56.495Z,2.83
2018-09-05T05:56:25.699Z,3.13
2018-09-05T05:58:54.942Z,2.87
2018-09-05T06:01:24.174Z,2.70
2018-09-05T06:03:53.399Z,2.50
2018-09-05T06:06:22.803Z,2.37
2018-09-05T06:08:51.872Z,2.00
2018-09-05T06:11:21.095Z,1.93
2018-09-05T06:13:50.326Z,2.00
2018-09-05T06:16:19.563Z,1.67
2018-09-05T06:18:48.766Z,1.70
2018-09-05T06:21:18.095Z,2.00
2018-09-05T06:23:47.295Z,1.90
2018-09-05T06:26:16.515Z,2.20
2018-09-05T06:28:45.738Z,2.90
2018-09-05T06:31:15.074Z,2.60
2018-09-05T06:33:44.156Z,2.80
2018-09-05T06:36:13.433Z,2.77
2018-09-05T06:38:42.635Z,2.80
2018-09-05T06:41:11.855Z,2.70
2018-09-05T06:43:41.095Z,2.70
2018-09-05T06:46:10.299Z,2.80
2018-09-05T06:48:39.536Z,2.85
2018-09-05T06:51:08.943Z,2.72
2018-09-05T06:53:39.239Z,2.53
2018-09-05T06:56:08.480Z,3.20
2018-09-05T06:58:37.816Z,2.70
2018-09-05T07:01:07.087Z,3.15
2018-09-05T07:03:36.439Z,3.05
2018-09-05T07:06:05.561Z,2.90
2018-09-05T07:08:34.759Z,2.97
2018-09-05T07:11:03.979Z,3.22
2018-09-05T07:13:33.178Z,3.25
2018-09-05T07:16:02.426Z,3.10
2018-09-05T07:18:31.834Z,3.30
2018-09-05T07:21:05.677Z,3.80
2018-09-05T07:23:30.281Z,3.30
2018-09-05T07:25:59.483Z,3.10
2018-09-05T07:28:28.696Z,3.30
2018-09-05T07:30:57.944Z,3.40
2018-09-05T07:33:27.129Z,3.80
2018-09-05T07:35:56.375Z,3.45
2018-09-05T07:38:25.598Z,3.37
2018-09-05T07:40:54.808Z,3.37
2018-09-05T07:43:24.033Z,3.43
2018-09-05T07:45:53.261Z,3.77
2018-09-05T07:48:22.493Z,3.50
2018-09-05T07:50:51.764Z,3.30
2018-09-05T07:53:20.935Z,3.70
2018-09-05T07:55:50.153Z,3.53
2018-09-05T07:58:19.355Z,3.93
2018-09-05T08:00:49.494Z,3.80
2018-09-05T08:03:18.701Z,3.80
2018-09-05T08:05:47.927Z,3.98
2018-09-05T08:08:18.180Z,3.73
2018-09-05T08:10:47.420Z,3.60
2018-09-05T08:13:17.531Z,3.50
2018-09-05T08:15:46.751Z,3.72
2018-09-05T08:18:16.309Z,3.30
2018-09-05T08:20:45.846Z,3.47
2018-09-05T08:23:15.075Z,3.87
2018-09-05T08:25:45.543Z,4.00
2018-09-05T08:28:14.746Z,3.80
2018-09-05T08:30:43.972Z,3.50
2018-09-05T08:33:13.186Z,3.90
2018-09-05T08:35:42.607Z,3.60
2018-09-05T08:38:11.687Z,3.70
2018-09-05T08:40:40.842Z,3.95
2018-09-05T08:43:10.048Z,3.80
2018-09-05T08:45:39.630Z,3.77
2018-09-05T08:48:08.655Z,3.52
2018-09-05T08:50:37.843Z,3.65
2018-09-05T08:53:07.055Z,3.95
2018-09-05T08:55:36.259Z,3.70
2018-09-05T08:58:05.537Z,3.20
2018-09-05T09:00:34.752Z,3.75
2018-09-05T09:03:04.170Z,3.72
2018-09-05T09:05:33.378Z,4.10
2018-09-05T09:08:02.845Z,4.07
2018-09-05T09:10:32.046Z,4.00
2018-09-05T09:13:01.251Z,4.00
2018-09-05T09:15:30.491Z,3.92
2018-09-05T09:17:59.710Z,4.42
2018-09-05T09:20:28.922Z,4.30
2018-09-05T09:22:58.147Z,3.80
2018-09-05T09:25:27.352Z,4.42
2018-09-05T09:27:56.598Z,4.33
2018-09-05T09:30:25.806Z,4.00
2018-09-05T09:32:54.997Z,4.07
2018-09-05T09:35:24.312Z,3.73
2018-09-05T09:37:54.689Z,4.60
2018-09-05T09:40:23.910Z,5.05
2018-09-05T09:42:53.199Z,4.60
2018-09-05T09:45:22.413Z,3.95
2018-09-05T09:47:51.666Z,4.30
2018-09-05T09:50:20.927Z,4.30
2018-09-05T09:52:50.155Z,4.65
2018-09-05T09:55:19.342Z,4.60
2018-09-05T09:57:48.558Z,4.67
2018-09-05T10:00:22.892Z,4.53
2018-09-05T10:02:57.227Z,5.03
2018-09-05T10:05:31.529Z,4.90
2018-09-05T10:08:06.900Z,5.50
2018-09-05T10:10:41.309Z,5.12
2018-09-05T10:13:17.410Z,5.62
2018-09-05T10:15:52.403Z,5.02
2018-09-05T10:18:27.494Z,5.60
2018-09-05T10:20:57.577Z,5.85
2018-09-05T10:23:27.071Z,5.70
2018-09-05T10:25:56.471Z,5.80
2018-09-05T10:28:25.699Z,6.00
2018-09-05T10:30:54.911Z,5.42
2018-09-05T10:33:24.151Z,5.72
2018-09-05T10:35:53.374Z,5.55
2018-09-05T10:38:22.568Z,6.30
2018-09-05T10:40:51.781Z,5.90
2018-09-05T10:43:20.999Z,6.25
2018-09-05T10:45:50.206Z,6.20
2018-09-05T10:48:19.414Z,5.67
2018-09-05T10:50:48.629Z,6.72
2018-09-05T10:53:17.842Z,6.20
2018-09-05T10:55:47.524Z,6.33
2018-09-05T10:58:17.011Z,5.95
2018-09-05T11:00:46.287Z,6.15
2018-09-05T11:03:15.535Z,6.37
2018-09-05T11:05:44.743Z,6.33
2018-09-05T11:08:13.955Z,6.60
2018-09-05T11:10:43.173Z,6.40
2018-09-05T11:13:12.362Z,6.90
2018-09-05T11:15:41.558Z,6.63
2018-09-05T11:18:10.782Z,7.10
2018-09-05T11:20:39.999Z,7.10
2018-09-05T11:23:09.277Z,6.80
2018-09-05T11:25:38.518Z,6.93
2018-09-05T11:28:07.773Z,7.10
2018-09-05T11:30:37.098Z,8.20
2018-09-05T11:33:07.649Z,8.25
2018-09-05T11:35:36.855Z,9.00
2018-09-05T11:38:06.142Z,9.70
2018-09-05T11:40:35.393Z,8.90
2018-09-05T11:43:04.631Z,8.65
2018-09-05T11:45:33.890Z,8.95
2018-09-05T11:48:03.179Z,8.78
2018-09-05T11:50:32.455Z,8.63
2018-09-05T11:53:01.675Z,8.60
2018-09-05T11:55:30.890Z,9.18
2018-09-05T11:58:00.159Z,9.35
2018-09-05T12:00:29.383Z,9.53
2018-09-05T12:02:58.607Z,9.95
2018-09-05T12:05:27.889Z,9.93
2018-09-05T12:07:57.183Z,9.45
2018-09-05T12:10:26.443Z,9.10
2018-09-05T12:12:55.698Z,9.60
2018-09-05T12:15:25.361Z,9.10
2018-09-05T12:17:54.572Z,9.05
2018-09-05T12:20:23.803Z,9.35
2018-09-05T12:22:53.120Z,9.70
2018-09-05T12:25:22.772Z,9.77
2018-09-05T12:27:52.000Z,10.60
2018-09-05T12:30:21.224Z,9.33
2018-09-05T12:32:50.474Z,10.10
2018-09-05T12:35:19.707Z,9.63
2018-09-05T12:37:48.934Z,10.43
2018-09-05T12:40:18.240Z,10.10
2018-09-05T12:42:47.489Z,10.48
2018-09-05T12:45:16.732Z,10.23
2018-09-05T12:47:46.045Z,10.58
2018-09-05T12:50:15.368Z,10.20
2018-09-05T12:52:44.619Z,10.53
2018-09-05T12:55:13.914Z,10.40
2018-09-05T12:57:43.087Z,10.20
2018-09-05T13:00:12.366Z,10.37
2018-09-05T13:02:41.642Z,10.63
2018-09-05T13:05:10.973Z,10.85
2018-09-05T13:07:40.154Z,10.93
2018-09-05T13:10:09.444Z,10.58
2018-09-05T13:12:39.063Z,11.20
2018-09-05T13:15:08.339Z,10.43
2018-09-05T13:17:37.563Z,9.75
2018-09-05T13:20:06.829Z,10.85
2018-09-05T13:22:36.218Z,10.03
2018-09-05T13:25:05.507Z,9.83
2018-09-05T13:27:34.750Z,10.35
2018-09-05T13:30:04.063Z,10.58
2018-09-05T13:32:33.349Z,9.60
2018-09-05T13:35:02.694Z,10.27
2018-09-05T13:37:32.282Z,10.45
2018-09-05T13:40:01.538Z,10.93
2018-09-05T13:42:32.035Z,10.68
2018-09-05T13:45:01.307Z,11.53
2018-09-05T13:47:30.747Z,10.70
2018-09-05T13:49:59.979Z,10.37
2018-09-05T13:52:29.579Z,10.23
2018-09-05T13:54:58.810Z,10.55
2018-09-05T13:57:28.096Z,9.95
2018-09-05T13:59:57.338Z,10.20
2018-09-05T14:02:26.615Z,10.87
2018-09-05T14:04:55.838Z,10.80
2018-09-05T14:07:25.115Z,11.08
2018-09-05T14:09:54.390Z,10.72
2018-09-05T14:12:23.608Z,10.57
2018-09-05T14:14:52.848Z,10.35
2018-09-05T14:17:22.117Z,10.45
2018-09-05T14:19:51.687Z,10.50
2018-09-05T14:22:20.990Z,10.27
2018-09-05T14:24:50.487Z,10.83
2018-09-05T14:27:19.805Z,11.03
2018-09-05T14:29:48.979Z,10.63
2018-09-05T14:32:18.195Z,10.32
2018-09-05T14:34:47.463Z,10.93
2018-09-05T14:37:16.763Z,10.60
2018-09-05T14:39:46.097Z,10.60
2018-09-05T14:42:15.323Z,10.78
2018-09-05T14:44:44.800Z,9.97
2018-09-05T14:47:14.080Z,10.65
2018-09-05T14:49:43.412Z,11.33
2018-09-05T14:52:12.708Z,11.20
2018-09-05T14:54:41.951Z,10.90
2018-09-05T14:57:11.180Z,11.13
2018-09-05T14:59:40.514Z,11.37
2018-09-05T15:02:09.895Z,11.85
2018-09-05T15:04:39.407Z,11.48
2018-09-05T15:07:08.671Z,11.25
2018-09-05T15:09:37.898Z,11.22
2018-09-05T15:12:07.171Z,11.63
2018-09-05T15:14:36.388Z,11.38
2018-09-05T15:17:05.760Z,11.55
2018-09-05T15:19:35.025Z,12.15
2018-09-05T15:22:04.304Z,11.53
2018-09-05T15:24:33.548Z,11.33
2018-09-05T15:27:02.785Z,10.95
2018-09-05T15:29:32.032Z,10.90
2018-09-05T15:32:01.332Z,11.30
2018-09-05T15:34:30.587Z,10.60
2018-09-05T15:36:59.873Z,11.55
2018-09-05T15:39:29.124Z,11.57
2018-09-05T15:41:58.370Z,11.95
2018-09-05T15:44:27.735Z,11.33
2018-09-05T15:46:57.031Z,11.13
2018-09-05T15:49:26.228Z,11.28
2018-09-05T15:51:56.375Z,11.10
2018-09-05T15:54:26.688Z,10.95
2018-09-05T15:56:55.902Z,10.80
2018-09-05T15:59:25.147Z,11.40
2018-09-05T16:01:55.213Z,11.50
2018-09-05T16:04:24.463Z,10.93
2018-09-05T16:06:53.763Z,11.60
2018-09-05T16:09:23.011Z,11.87
2018-09-05T16:11:52.256Z,11.53
2018-09-05T16:14:21.570Z,12.75
2018-09-05T16:16:50.811Z,12.80
2018-09-05T16:19:20.060Z,11.28
2018-09-05T16:21:49.315Z,11.60
2018-09-05T16:24:18.554Z,11.13
2018-09-05T16:26:47.995Z,12.43
2018-09-05T16:29:17.227Z,11.85
2018-09-05T16:31:46.474Z,12.23
2018-09-05T16:34:15.711Z,11.70
2018-09-05T16:36:45.001Z,11.20
2018-09-05T16:39:14.246Z,11.70
2018-09-05T16:41:43.517Z,11.70
2018-09-05T16:44:12.744Z,12.10
2018-09-05T16:46:41.963Z,12.20
2018-09-05T16:49:11.197Z,12.85
2018-09-05T16:51:40.452Z,12.78
2018-09-05T16:54:09.723Z,13.08
2018-09-05T16:56:38.950Z,12.53
2018-09-05T16:59:08.149Z,11.93
2018-09-05T17:01:37.457Z,13.00
2018-09-05T17:04:06.835Z,12.33
2018-09-05T17:06:36.079Z,11.30
2018-09-05T17:09:08.692Z,12.63
2018-09-05T17:11:37.972Z,12.60
2018-09-05T17:14:07.280Z,13.38
2018-09-05T17:16:36.526Z,12.73
2018-09-05T17:19:06.090Z,12.95
2018-09-05T17:21:35.342Z,13.87
2018-09-05T17:24:04.639Z,12.33
2018-09-05T17:26:35.154Z,12.98
2018-09-05T17:29:04.754Z,13.48
2018-09-05T17:31:34.126Z,13.10
2018-09-05T17:34:03.977Z,14.03
2018-09-05T17:36:33.210Z,13.27
2018-09-05T17:39:02.459Z,13.50
2018-09-05T17:41:31.735Z,14.30
2018-09-05T17:44:01.050Z,14.33
2018-09-05T17:46:30.303Z,14.50
2018-09-05T17:48:59.546Z,14.03
2018-09-05T17:51:28.878Z,14.73
2018-09-05T17:53:58.146Z,15.00
2018-09-05T17:56:27.396Z,14.57
2018-09-05T17:58:56.643Z,15.43
2018-09-05T18:01:26.354Z,15.87
2018-09-05T18:03:55.562Z,16.10
2018-09-05T18:06:24.797Z,16.13
2018-09-05T18:08:54.017Z,16.97
2018-09-05T18:11:23.259Z,17.37
2018-09-05T18:13:52.537Z,16.77
2018-09-05T18:16:21.779Z,16.57
2018-09-05T18:18:51.050Z,17.70
2018-09-05T18:21:20.307Z,16.43
2018-09-05T18:23:49.546Z,18.30
2018-09-05T18:26:18.790Z,18.13
2018-09-05T18:28:48.039Z,18.30
2018-09-05T18:31:17.308Z,18.10
2018-09-05T18:33:46.589Z,17.97
2018-09-05T18:36:15.795Z,18.30
2018-09-05T18:38:45.041Z,18.00
2018-09-05T18:41:14.309Z,18.37
2018-09-05T18:43:43.596Z,18.40
2018-09-05T18:46:12.938Z,19.00
2018-09-05T18:48:42.284Z,20.10
2018-09-05T18:51:11.614Z,19.23
2018-09-05T18:53:40.859Z,20.20
2018-09-05T18:56:10.151Z,19.00
2018-09-05T18:58:39.451Z,18.67
2018-09-05T19:01:08.698Z,18.47
2018-09-05T19:03:37.933Z,19.77
2018-09-05T19:06:07.299Z,19.13
2018-09-05T19:08:36.525Z,19.73
2018-09-05T19:11:05.908Z,19.00
2018-09-05T19:13:35.150Z,18.67
2018-09-05T19:16:04.472Z,19.47
2018-09-05T19:18:33.808Z,18.63
2018-09-05T19:21:02.983Z,18.63
2018-09-05T19:23:32.838Z,19.93
2018-09-05T19:26:02.195Z,20.00
2018-09-05T19:28:31.460Z,20.37
2018-09-05T19:31:00.815Z,19.00
2018-09-05T19:33:30.067Z,18.77
2018-09-05T19:35:59.324Z,20.37
2018-09-05T19:38:28.558Z,19.73
2018-09-05T19:40:57.827Z,18.50
2018-09-05T19:43:27.038Z,19.20
2018-09-05T19:45:56.287Z,20.47
2018-09-05T19:48:25.523Z,19.90
2018-09-05T19:50:54.755Z,19.10
2018-09-05T19:53:24.027Z,18.97
2018-09-05T19:55:53.300Z,18.50
2018-09-05T19:58:22.561Z,18.60
2018-09-05T20:00:52.093Z,18.67
2018-09-05T20:03:21.370Z,19.40
2018-09-05T20:05:50.818Z,19.17
2018-09-05T20:08:20.290Z,19.30
2018-09-05T20:10:50.756Z,19.53
2018-09-05T20:13:20.023Z,20.57
2018-09-05T20:15:49.262Z,19.83
2018-09-05T20:18:18.569Z,19.83
2018-09-05T20:20:47.831Z,19.33
2018-09-05T20:23:17.141Z,19.80
2018-09-05T20:25:46.341Z,18.57
2018-09-05T20:28:15.594Z,19.43
2018-09-05T20:30:44.847Z,19.67
2018-09-05T20:33:14.106Z,20.37
2018-09-05T20:36:17.239Z,19.33
2018-09-05T20:38:46.495Z,20.17
2018-09-05T20:41:15.730Z,19.60
2018-09-05T20:43:45.035Z,19.42
2018-09-05T20:46:14.326Z,19.50
2018-09-05T20:51:43.547Z,19.33
2018-09-05T20:54:12.775Z,18.40
2018-09-05T20:56:42.043Z,18.67
2018-09-05T20:59:11.394Z,18.60
2018-09-05T21:01:40.676Z,18.90
2018-09-05T21:04:09.924Z,17.70
2018-09-05T21:06:39.163Z,18.50
2018-09-05T21:09:09.410Z,18.47
2018-09-05T21:11:38.645Z,17.87
2018-09-05T21:14:07.980Z,18.47
2018-09-05T21:16:37.532Z,20.35
2018-09-05T21:19:06.799Z,19.87
2018-09-05T21:21:36.030Z,19.43
2018-09-05T21:24:05.356Z,21.43
2018-09-05T21:26:34.707Z,23.50
2018-09-05T21:29:03.926Z,23.13
2018-09-05T21:31:33.175Z,22.87
2018-09-05T21:34:02.437Z,23.70
2018-09-05T21:36:31.661Z,22.83
2018-09-05T21:39:00.952Z,21.30
2018-09-05T21:41:30.143Z,20.27
2018-09-05T21:43:59.439Z,19.23
2018-09-05T21:46:28.622Z,19.30
2018-09-05T21:48:57.863Z,17.70
2018-09-05T21:51:27.207Z,18.05
2018-09-05T21:53:56.454Z,18.47
2018-09-05T21:56:25.687Z,17.77
2018-09-05T21:58:54.943Z,20.10
2018-09-05T22:01:24.195Z,19.23
2018-09-05T22:03:53.708Z,19.97
2018-09-05T22:06:22.950Z,20.35
2018-09-05T22:08:52.178Z,19.33
2018-09-05T22:11:25.174Z,18.70
2018-09-05T22:13:55.252Z,19.20
2018-09-05T22:16:24.486Z,20.43
2018-09-05T22:18:53.938Z,21.57
2018-09-05T22:21:23.178Z,19.87
2018-09-05T22:23:52.640Z,20.17
2018-09-05T22:26:21.886Z,19.50
2018-09-05T22:28:51.130Z,20.27
2018-09-05T22:31:20.370Z,20.45
2018-09-05T22:33:49.627Z,19.47
2018-09-05T22:36:18.884Z,19.37
2018-09-05T22:38:48.122Z,19.47
2018-09-05T22:41:17.355Z,19.17
2018-09-05T22:44:03.659Z,19.20
2018-09-05T22:47:54.092Z,18.80
2018-09-05T22:51:06.969Z,16.70
2018-09-05T22:58:11.366Z,17.80
2018-09-05T23:01:02.395Z,17.43
2018-09-05T23:04:37.217Z,17.60
2018-09-05T23:07:34.364Z,18.73
2018-09-05T23:10:20.797Z,19.70
2018-09-05T23:13:07.256Z,20.87
2018-09-05T23:16:56.705Z,19.87
2018-09-05T23:19:38.575Z,18.80
2018-09-05T23:22:07.892Z,18.40
2018-09-05T23:24:37.160Z,19.13
2018-09-05T23:27:06.572Z,19.95
2018-09-05T23:29:35.911Z,22.70
2018-09-05T23:37:02.516Z,24.60
2018-09-05T23:39:31.800Z,25.15
2018-09-05T23:42:01.893Z,22.40
2018-09-05T23:44:31.148Z,22.67
2018-09-05T23:47:00.447Z,23.13
2018-09-05T23:49:29.711Z,23.90
2018-09-05T23:51:58.952Z,23.87
2018-09-05T23:54:28.484Z,23.47
2018-09-05T23:56:57.744Z,29.67
2018-09-05T23:59:26.971Z,30.83
